createdAt,value
2023-10-09T00:01:53.250Z,14.60
2023-10-09T00:04:21.926Z,14.60
2023-10-09T00:06:49.852Z,14.70
2023-10-09T00:09:25.832Z,14.60
2023-10-09T00:12:01.683Z,14.30
2023-10-09T00:14:34.266Z,14.40
2023-10-09T00:17:22.853Z,15.00
2023-10-09T00:19:52.454Z,14.50
2023-10-09T00:22:30.824Z,14.50
2023-10-09T00:25:22.866Z,14.50
2023-10-09T00:27:49.953Z,14.40
2023-10-09T00:30:30.918Z,14.40
2023-10-09T00:33:02.533Z,14.50
2023-10-09T00:35:37.676Z,14.40
2023-10-09T00:38:27.109Z,15.50
2023-10-09T00:41:03.627Z,14.30
2023-10-09T00:43:31.713Z,14.40
2023-10-09T00:46:12.722Z,14.30
2023-10-09T00:48:41.136Z,14.30
2023-10-09T00:51:29.886Z,14.50
2023-10-09T00:54:20.763Z,14.40
2023-10-09T00:56:58.422Z,14.20
2023-10-09T00:59:27.699Z,14.20
2023-10-09T01:02:00.039Z,14.70
2023-10-09T01:04:33.491Z,14.30
2023-10-09T01:07:22.395Z,14.20
2023-10-09T01:09:52.517Z,14.30
2023-10-09T01:12:19.794Z,14.20
2023-10-09T01:14:56.718Z,14.10
2023-10-09T01:17:46.458Z,14.10
2023-10-09T01:20:18.190Z,14.10
2023-10-09T01:22:45.434Z,14.10
2023-10-09T01:25:12.729Z,14.20
2023-10-09T01:27:41.513Z,13.20
2023-10-09T01:30:15.450Z,14.10
2023-10-09T01:32:44.818Z,14.10
2023-10-09T01:35:22.311Z,14.10
2023-10-09T01:37:52.301Z,13.80
2023-10-09T01:40:36.983Z,14.40
2023-10-09T01:43:05.347Z,14.60
2023-10-09T01:45:43.316Z,13.90
2023-10-09T01:48:13.342Z,13.90
2023-10-09T01:50:43.086Z,13.80
2023-10-09T01:53:10.441Z,13.60
2023-10-09T01:55:40.955Z,13.60
2023-10-09T01:58:25.520Z,13.80
2023-10-09T02:00:56.972Z,13.80
2023-10-09T02:03:30.501Z,14.20
2023-10-09T02:06:01.289Z,13.80
2023-10-09T02:11:04.796Z,13.70
2023-10-09T02:13:35.918Z,13.80
2023-10-09T02:16:16.360Z,13.90
2023-10-09T02:19:00.244Z,13.90
2023-10-09T02:21:41.630Z,14.00
2023-10-09T02:24:27.865Z,14.50
2023-10-09T02:26:55.258Z,13.10
2023-10-09T02:29:25.315Z,14.80
2023-10-09T02:32:02.091Z,13.90
2023-10-09T02:34:30.785Z,13.50
2023-10-09T02:37:07.220Z,13.80
2023-10-09T02:39:44.832Z,13.70
2023-10-09T02:42:14.763Z,13.80
2023-10-09T02:44:47.746Z,12.60
2023-10-09T02:47:32.016Z,14.00
2023-10-09T02:50:08.657Z,13.70
2023-10-09T02:52:41.748Z,13.60
2023-10-09T02:57:57.479Z,13.80
2023-10-09T03:00:30.935Z,13.70
2023-10-09T03:02:59.395Z,13.50
2023-10-09T03:05:29.828Z,13.60
2023-10-09T03:07:57.658Z,13.70
2023-10-09T03:10:26.552Z,13.90
2023-10-09T03:12:57.014Z,14.10
2023-10-09T03:15:24.201Z,13.80
2023-10-09T03:20:20.219Z,13.60
2023-10-09T03:22:48.886Z,13.70
2023-10-09T03:25:18.206Z,13.60
2023-10-09T03:27:48.871Z,13.40
2023-10-09T03:30:24.640Z,13.50
2023-10-09T03:32:54.006Z,13.80
2023-10-09T03:35:26.484Z,15.60
2023-10-09T03:38:11.150Z,13.80
2023-10-09T03:40:40.281Z,13.40
2023-10-09T03:43:07.393Z,13.70
2023-10-09T03:45:36.620Z,13.60
2023-10-09T03:48:07.372Z,13.50
2023-10-09T03:53:09.516Z,13.40
2023-10-09T03:55:39.541Z,13.50
2023-10-09T03:58:13.226Z,13.50
2023-10-09T04:00:47.827Z,13.60
2023-10-09T04:05:44.727Z,13.40
2023-10-09T04:08:22.266Z,13.50
2023-10-09T04:10:54.356Z,13.40
2023-10-09T04:13:24.269Z,13.50
2023-10-09T04:15:54.435Z,13.30
2023-10-09T04:18:22.214Z,13.00
2023-10-09T04:23:59.552Z,13.60
2023-10-09T04:26:29.704Z,13.40
2023-10-09T04:28:57.253Z,13.20
2023-10-09T04:31:33.296Z,13.50
2023-10-09T04:34:18.826Z,13.50
2023-10-09T04:37:02.297Z,13.40
2023-10-09T04:39:32.777Z,13.30
2023-10-09T04:42:18.890Z,13.10
2023-10-09T04:45:05.064Z,13.50
2023-10-09T04:47:38.969Z,13.30
2023-10-09T04:50:37.022Z,13.20
2023-10-09T04:53:19.667Z,13.40
2023-10-09T04:55:55.722Z,13.30
2023-10-09T04:58:27.758Z,13.30
2023-10-09T05:08:28.707Z,13.30
2023-10-09T05:11:03.774Z,13.60
2023-10-09T05:13:57.713Z,13.10
2023-10-09T05:16:27.946Z,13.50
2023-10-09T05:18:58.215Z,13.20
2023-10-09T05:24:20.634Z,13.70
2023-10-09T05:26:51.892Z,13.30
2023-10-09T05:29:25.558Z,13.00
2023-10-09T05:32:12.366Z,13.40
2023-10-09T05:34:58.929Z,13.00
2023-10-09T05:37:35.473Z,13.30
2023-10-09T05:40:16.900Z,13.50
2023-10-09T05:42:45.300Z,13.30
2023-10-09T05:45:18.060Z,13.80
2023-10-09T05:48:28.774Z,13.20
2023-10-09T05:51:10.762Z,13.60
2023-10-09T05:56:33.263Z,13.20
2023-10-09T05:59:18.934Z,13.20
2023-10-09T06:01:52.169Z,13.20
2023-10-09T06:04:21.070Z,13.70
2023-10-09T06:06:58.104Z,13.10
2023-10-09T06:09:51.324Z,13.10
2023-10-09T06:12:34.242Z,13.20
2023-10-09T06:15:21.179Z,12.80
2023-10-09T06:17:52.006Z,13.30
2023-10-09T06:20:38.186Z,12.70
2023-10-09T06:23:17.171Z,13.20
2023-10-09T06:25:52.464Z,13.20
2023-10-09T06:28:34.232Z,14.00
2023-10-09T06:31:24.131Z,12.80
2023-10-09T06:34:16.860Z,13.00
2023-10-09T06:39:48.320Z,13.10
2023-10-09T06:42:38.354Z,13.10
2023-10-09T06:45:19.661Z,13.00
2023-10-09T06:47:57.665Z,13.30
2023-10-09T06:50:48.332Z,13.00
2023-10-09T06:53:16.033Z,13.10
2023-10-09T06:58:29.312Z,13.20
2023-10-09T07:01:00.005Z,13.20
2023-10-09T07:03:31.625Z,13.30
2023-10-09T07:06:24.864Z,13.20
2023-10-09T07:09:17.090Z,13.20
2023-10-09T07:11:50.653Z,13.10
2023-10-09T07:14:32.893Z,13.20
2023-10-09T07:17:21.918Z,13.00
2023-10-09T07:19:54.954Z,13.10
2023-10-09T07:22:30.544Z,13.50
2023-10-09T07:24:59.036Z,13.00
2023-10-09T07:30:28.823Z,13.10
2023-10-09T07:35:48.684Z,13.00
2023-10-09T07:38:29.828Z,13.80
2023-10-09T07:41:03.766Z,13.00
2023-10-09T07:43:46.590Z,13.20
2023-10-09T07:46:39.866Z,13.30
2023-10-09T07:49:10.349Z,13.30
2023-10-09T07:51:39.732Z,13.00
2023-10-09T07:54:10.351Z,13.10
2023-10-09T07:56:42.587Z,12.40
2023-10-09T07:59:13.411Z,13.20
2023-10-09T08:04:54.512Z,13.30
2023-10-09T08:08:06.045Z,13.30
2023-10-09T08:10:23.192Z,13.40
2023-10-09T08:12:50.494Z,13.20
2023-10-09T08:15:23.223Z,13.50
2023-10-09T08:18:21.583Z,13.40
2023-10-09T08:21:00.832Z,13.50
2023-10-09T08:23:30.742Z,13.90
2023-10-09T08:26:15.552Z,13.40
2023-10-09T08:28:44.438Z,13.50
2023-10-09T08:31:35.794Z,13.20
2023-10-09T08:36:38.471Z,13.60
2023-10-09T08:39:26.421Z,13.50
2023-10-09T08:41:55.732Z,13.30
2023-10-09T08:44:26.439Z,13.70
2023-10-09T08:46:58.594Z,13.50
2023-10-09T08:49:28.985Z,13.60
2023-10-09T08:51:57.841Z,13.80
2023-10-09T08:54:24.990Z,13.80
2023-10-09T08:56:52.316Z,13.60
2023-10-09T08:59:22.575Z,13.70
2023-10-09T09:01:53.132Z,13.70
2023-10-09T09:04:41.023Z,14.00
2023-10-09T09:07:35.162Z,13.80
2023-10-09T09:12:46.467Z,14.10
2023-10-09T09:15:22.426Z,14.80
2023-10-09T09:17:52.187Z,14.20
2023-10-09T09:20:33.058Z,14.40
2023-10-09T09:23:02.440Z,14.70
2023-10-09T09:25:49.376Z,15.00
2023-10-09T09:28:23.189Z,14.60
2023-10-09T09:30:53.131Z,14.60
2023-10-09T09:33:28.090Z,14.60
2023-10-09T09:36:04.944Z,14.40
2023-10-09T09:38:51.578Z,14.60
2023-10-09T09:41:25.742Z,14.80
2023-10-09T09:43:58.257Z,14.80
2023-10-09T09:46:35.293Z,14.80
2023-10-09T09:49:06.854Z,14.70
2023-10-09T09:51:34.587Z,14.70
2023-10-09T09:54:03.757Z,15.00
2023-10-09T09:56:32.389Z,15.50
2023-10-09T09:59:07.752Z,15.70
2023-10-09T10:01:41.036Z,15.90
2023-10-09T10:04:21.779Z,16.10
2023-10-09T10:09:42.749Z,16.50
2023-10-09T10:12:13.232Z,16.60
2023-10-09T10:15:00.865Z,17.00
2023-10-09T10:17:30.577Z,16.90
2023-10-09T10:20:18.556Z,16.80
2023-10-09T10:22:49.523Z,16.40
2023-10-09T10:25:37.015Z,16.40
2023-10-09T10:28:44.274Z,16.60
2023-10-09T10:31:15.080Z,16.70
2023-10-09T10:33:57.517Z,16.70
2023-10-09T10:36:26.323Z,16.70
2023-10-09T10:39:20.725Z,16.90
2023-10-09T10:41:58.832Z,17.30
2023-10-09T10:44:34.980Z,16.40
2023-10-09T10:47:02.872Z,16.10
2023-10-09T10:49:37.865Z,16.80
2023-10-09T10:52:20.046Z,17.00
2023-10-09T10:54:47.369Z,16.90
2023-10-09T10:57:38.210Z,16.50
2023-10-09T11:00:15.523Z,17.30
2023-10-09T11:02:49.554Z,17.20
2023-10-09T11:05:24.806Z,17.10
2023-10-09T11:07:58.319Z,16.90
2023-10-09T11:10:30.359Z,16.80
2023-10-09T11:13:09.465Z,16.50
2023-10-09T11:15:45.338Z,16.60
2023-10-09T11:18:28.140Z,16.20
2023-10-09T11:21:19.154Z,16.10
2023-10-09T11:23:59.462Z,16.20
2023-10-09T11:26:29.640Z,16.60
2023-10-09T11:29:33.253Z,16.50
2023-10-09T11:32:10.667Z,16.30
2023-10-09T11:34:38.828Z,16.90
2023-10-09T11:37:12.590Z,16.80
2023-10-09T11:39:54.957Z,16.80
2023-10-09T11:42:39.909Z,17.20
2023-10-09T11:45:32.824Z,17.40
2023-10-09T11:48:22.589Z,18.70
2023-10-09T11:50:56.565Z,17.50
2023-10-09T11:53:23.807Z,18.30
2023-10-09T11:55:54.634Z,19.00
2023-10-09T11:58:26.067Z,18.30
2023-10-09T12:00:58.258Z,18.30
2023-10-09T12:03:31.324Z,18.40
2023-10-09T12:06:06.905Z,18.60
2023-10-09T12:08:35.801Z,18.30
2023-10-09T12:11:05.154Z,18.20
2023-10-09T12:13:32.457Z,18.40
2023-10-09T12:16:00.042Z,17.60
2023-10-09T12:18:27.425Z,17.30
2023-10-09T12:21:03.460Z,17.80
2023-10-09T12:23:33.990Z,18.00
2023-10-09T12:26:01.195Z,18.10
2023-10-09T12:28:29.932Z,18.60
2023-10-09T12:31:02.241Z,19.00
2023-10-09T12:33:31.235Z,19.20
2023-10-09T12:36:02.114Z,19.40
2023-10-09T12:38:33.755Z,19.30
2023-10-09T12:41:19.300Z,19.40
2023-10-09T12:43:48.042Z,20.00
2023-10-09T12:46:18.221Z,20.20
2023-10-09T12:48:49.164Z,20.30
2023-10-09T12:51:19.850Z,20.30
2023-10-09T12:53:51.757Z,20.00
2023-10-09T12:56:19.606Z,20.50
2023-10-09T13:01:22.284Z,19.80
2023-10-09T13:03:52.737Z,19.80
2023-10-09T13:06:25.333Z,20.10
2023-10-09T13:08:53.180Z,20.50
2023-10-09T13:11:20.543Z,20.50
2023-10-09T13:13:53.887Z,20.40
2023-10-09T13:16:26.182Z,20.70
2023-10-09T13:19:00.359Z,20.70
2023-10-09T13:21:33.563Z,20.10
2023-10-09T13:24:02.831Z,20.80
2023-10-09T13:26:35.091Z,20.30
2023-10-09T13:29:04.189Z,20.60
2023-10-09T13:31:36.110Z,20.60
2023-10-09T13:34:04.941Z,20.50
2023-10-09T13:36:33.041Z,20.80
2023-10-09T13:39:25.704Z,20.70
2023-10-09T13:42:02.433Z,20.00
2023-10-09T13:44:34.326Z,21.00
2023-10-09T13:47:20.201Z,20.10
2023-10-09T13:49:52.038Z,20.20
2023-10-09T13:52:19.847Z,20.80
2023-10-09T13:54:49.526Z,20.90
2023-10-09T13:57:17.141Z,20.50
2023-10-09T13:59:50.384Z,20.80
2023-10-09T14:02:19.370Z,20.80
2023-10-09T14:04:51.296Z,20.50
2023-10-09T14:07:18.485Z,20.50
2023-10-09T14:09:46.029Z,20.40
2023-10-09T14:12:15.498Z,20.30
2023-10-09T14:14:55.184Z,20.50
2023-10-09T14:17:29.943Z,20.50
2023-10-09T14:20:17.620Z,20.50
2023-10-09T14:22:46.686Z,20.60
2023-10-09T14:27:43.970Z,20.60
2023-10-09T14:30:23.980Z,20.10
2023-10-09T14:32:56.934Z,20.70
2023-10-09T14:35:28.061Z,19.60
2023-10-09T14:37:55.248Z,20.40
2023-10-09T14:40:22.712Z,20.20
2023-10-09T14:42:55.939Z,20.30
2023-10-09T14:45:27.254Z,20.10
2023-10-09T14:47:55.732Z,19.50
2023-10-09T14:50:24.013Z,19.90
2023-10-09T14:52:52.331Z,19.80
2023-10-09T14:57:53.707Z,19.60
2023-10-09T15:00:24.867Z,19.50
2023-10-09T15:02:53.702Z,19.70
2023-10-09T15:05:23.933Z,19.40
2023-10-09T15:07:53.341Z,19.60
2023-10-09T15:10:20.596Z,19.30
2023-10-09T15:12:51.016Z,19.30
2023-10-09T15:15:19.403Z,19.30
2023-10-09T15:17:49.917Z,19.40
2023-10-09T15:22:47.225Z,19.20
2023-10-09T15:25:15.739Z,18.90
2023-10-09T15:27:44.524Z,18.60
2023-10-09T15:30:15.060Z,18.90
2023-10-09T15:32:43.312Z,20.20
2023-10-09T15:35:11.270Z,19.70
2023-10-09T15:37:38.771Z,17.60
2023-10-09T15:40:20.178Z,19.40
2023-10-09T15:42:50.946Z,18.00
2023-10-09T15:45:22.942Z,19.00
2023-10-09T15:47:52.412Z,18.70
2023-10-09T15:50:20.842Z,19.10
2023-10-09T15:52:50.512Z,18.90
2023-10-09T15:57:49.972Z,18.60
2023-10-09T16:02:49.985Z,18.50
2023-10-09T16:05:18.074Z,18.80
2023-10-09T16:07:45.756Z,18.20
2023-10-09T16:10:13.444Z,19.40
2023-10-09T16:12:43.088Z,18.30
2023-10-09T16:15:11.509Z,18.30
2023-10-09T16:17:38.705Z,17.70
2023-10-09T16:20:14.857Z,18.20
2023-10-09T16:22:42.260Z,18.10
2023-10-09T16:25:14.621Z,18.30
2023-10-09T16:27:47.773Z,17.90
2023-10-09T16:30:22.458Z,18.20
2023-10-09T16:32:51.838Z,17.70
2023-10-09T16:35:23.394Z,18.10
2023-10-09T16:37:51.963Z,18.10
2023-10-09T16:40:21.868Z,18.10
2023-10-09T16:42:54.613Z,19.00
2023-10-09T16:45:22.077Z,17.80
2023-10-09T16:47:52.608Z,17.80
2023-10-09T16:52:54.059Z,18.10
2023-10-09T16:55:21.925Z,17.30
2023-10-09T16:57:49.435Z,19.10
2023-10-09T17:00:36.054Z,18.00
2023-10-09T17:03:10.857Z,17.90
2023-10-09T17:05:52.354Z,18.20
2023-10-09T17:08:20.761Z,17.80
2023-10-09T17:10:52.150Z,17.70
2023-10-09T17:13:25.328Z,17.50
2023-10-09T17:15:54.397Z,18.10
2023-10-09T17:18:23.313Z,17.60
2023-10-09T17:20:50.336Z,17.60
2023-10-09T17:23:17.739Z,17.40
2023-10-09T17:25:47.989Z,17.50
2023-10-09T17:30:49.783Z,17.40
2023-10-09T17:33:20.570Z,17.40
2023-10-09T17:38:19.515Z,17.60
2023-10-09T17:43:21.942Z,17.30
2023-10-09T17:45:53.941Z,17.30
2023-10-09T17:48:23.190Z,17.10
2023-10-09T17:50:51.416Z,17.20
2023-10-09T17:53:19.148Z,17.30
2023-10-09T17:55:47.736Z,18.40
2023-10-09T17:58:15.006Z,17.10
2023-10-09T18:00:44.197Z,16.50
2023-10-09T18:03:16.303Z,17.40
2023-10-09T18:05:46.008Z,17.20
2023-10-09T18:08:16.226Z,17.20
2023-10-09T18:10:44.721Z,17.20
2023-10-09T18:13:18.372Z,17.20
2023-10-09T18:15:46.482Z,17.00
2023-10-09T18:18:20.810Z,17.50
2023-10-09T18:20:50.534Z,17.00
2023-10-09T18:23:20.660Z,17.10
2023-10-09T18:25:50.999Z,17.20
2023-10-09T18:28:18.835Z,17.00
2023-10-09T18:30:50.386Z,17.10
2023-10-09T18:33:17.973Z,17.00
2023-10-09T18:35:45.266Z,16.90
2023-10-09T18:38:17.403Z,16.80
2023-10-09T18:40:50.848Z,16.90
2023-10-09T18:43:20.767Z,16.90
2023-10-09T18:45:47.848Z,17.00
2023-10-09T18:50:46.547Z,16.90
2023-10-09T18:53:14.433Z,16.70
2023-10-09T18:55:41.989Z,18.20
2023-10-09T18:58:13.615Z,18.20
2023-10-09T19:00:50.146Z,16.70
2023-10-09T19:03:21.785Z,16.60
2023-10-09T19:05:48.989Z,17.10
2023-10-09T19:08:19.685Z,16.80
2023-10-09T19:10:47.441Z,16.80
2023-10-09T19:13:17.010Z,16.90
2023-10-09T19:15:51.655Z,17.10
2023-10-09T19:18:20.398Z,16.80
2023-10-09T19:20:47.899Z,16.80
2023-10-09T19:23:15.010Z,16.70
2023-10-09T19:25:45.293Z,16.80
2023-10-09T19:30:40.625Z,16.70
2023-10-09T19:33:07.715Z,16.60
2023-10-09T19:35:35.300Z,16.80
2023-10-09T19:38:02.453Z,16.60
2023-10-09T19:40:31.514Z,16.60
2023-10-09T19:42:59.925Z,16.50
2023-10-09T19:50:26.548Z,16.40
2023-10-09T19:52:53.800Z,17.10
2023-10-09T19:55:23.067Z,16.50
2023-10-09T19:57:52.528Z,16.00
2023-10-09T20:00:23.465Z,15.60
2023-10-09T20:02:54.751Z,15.60
2023-10-09T20:05:24.204Z,15.50
2023-10-09T20:07:51.647Z,16.00
2023-10-09T20:10:19.713Z,16.60
2023-10-09T20:12:47.401Z,16.50
2023-10-09T20:15:15.148Z,16.50
2023-10-09T20:17:45.378Z,16.50
2023-10-09T20:20:12.960Z,16.60
2023-10-09T20:22:40.780Z,16.30
2023-10-09T20:25:14.313Z,16.40
2023-10-09T20:27:43.405Z,16.30
2023-10-09T20:30:14.988Z,16.40
2023-10-09T20:32:43.003Z,16.50
2023-10-09T20:35:13.586Z,16.20
2023-10-09T20:37:42.354Z,16.10
2023-10-09T20:40:18.941Z,16.30
2023-10-09T20:42:52.681Z,16.40
2023-10-09T20:45:20.006Z,16.40
2023-10-09T20:47:55.928Z,16.20
2023-10-09T20:50:23.726Z,16.50
2023-10-09T20:52:52.047Z,16.20
2023-10-09T20:55:25.520Z,16.10
2023-10-09T20:57:59.093Z,16.60
2023-10-09T21:00:28.143Z,16.20
2023-10-09T21:02:56.465Z,16.20
2023-10-09T21:05:24.699Z,16.10
2023-10-09T21:07:54.522Z,16.10
2023-10-09T21:10:22.691Z,16.10
2023-10-09T21:12:51.088Z,16.20
2023-10-09T21:15:22.222Z,14.90
2023-10-09T21:20:21.347Z,15.90
2023-10-09T21:22:56.422Z,15.20
2023-10-09T21:25:25.650Z,16.00
2023-10-09T21:27:55.683Z,16.00
2023-10-09T21:30:27.939Z,16.10
2023-10-09T21:32:55.613Z,16.00
2023-10-09T21:35:28.560Z,15.90
2023-10-09T21:38:01.115Z,15.10
2023-10-09T21:40:30.671Z,16.10
2023-10-09T21:43:07.838Z,16.00
2023-10-09T21:45:45.830Z,15.70
2023-10-09T21:48:13.371Z,16.10
2023-10-09T21:50:42.581Z,16.00
2023-10-09T21:53:09.702Z,15.90
2023-10-09T21:55:37.101Z,15.90
2023-10-09T21:58:08.384Z,15.90
2023-10-09T22:00:37.368Z,15.90
2023-10-09T22:03:11.625Z,15.80
2023-10-09T22:05:43.048Z,16.00
2023-10-09T22:08:12.295Z,15.70
2023-10-09T22:10:41.304Z,15.30
2023-10-09T22:13:09.014Z,15.60
2023-10-09T22:15:36.217Z,16.20
2023-10-09T22:18:15.465Z,14.90
2023-10-09T22:20:47.733Z,15.80
2023-10-09T22:23:19.433Z,15.90
2023-10-09T22:25:57.374Z,15.70
2023-10-09T22:28:25.472Z,15.50
2023-10-09T22:30:56.887Z,15.80
2023-10-09T22:33:26.233Z,15.70
2023-10-09T22:35:56.503Z,15.50
2023-10-09T22:38:23.623Z,15.50
2023-10-09T22:40:52.554Z,15.30
2023-10-09T22:45:53.677Z,15.60
2023-10-09T22:48:27.984Z,15.50
2023-10-09T22:50:59.798Z,15.30
2023-10-09T22:53:47.907Z,15.40
2023-10-09T22:56:17.408Z,15.50
2023-10-09T22:58:53.396Z,15.40
2023-10-09T23:01:25.009Z,14.70
2023-10-09T23:04:16.419Z,15.40
2023-10-09T23:06:47.117Z,15.30
2023-10-09T23:09:17.557Z,14.90
2023-10-09T23:11:55.547Z,15.30
2023-10-09T23:14:29.073Z,15.20
2023-10-09T23:17:00.419Z,15.30
2023-10-09T23:19:44.920Z,15.30
2023-10-09T23:22:20.116Z,15.20
2023-10-09T23:24:53.227Z,15.40
2023-10-09T23:27:46.062Z,14.30
2023-10-09T23:30:23.909Z,15.30
2023-10-09T23:33:10.955Z,14.40
2023-10-09T23:35:52.543Z,15.20
2023-10-09T23:38:32.813Z,15.10
2023-10-09T23:41:11.705Z,15.10
2023-10-09T23:43:48.351Z,15.10
2023-10-09T23:46:19.078Z,15.10
2023-10-09T23:48:49.860Z,14.90
2023-10-09T23:51:20.011Z,15.70
2023-10-09T23:53:53.951Z,15.20
2023-10-09T23:56:43.906Z,15.00
2023-10-09T23:59:14.031Z,14.90
